Sunday, December 21, 2014, 8:18 PM EST

KFDK, Frederick, Frederick Municipal Airport

Location: Frederick, MD, United States Lat: 39.417
Local Time: 8:18 PM EST ( 1:18 GMT) Lon: -77.374
Time Zone: US/Eastern Elev: 301 ft

Show me the last for .
Show Decoded

2014-12-21 19:55 METAR KFDK 220055Z AUTO 00000KT 10SM CLR M01/M06 A3037 RMK AO2 =
2014-12-21 19:35 METAR KFDK 220035Z AUTO 00000KT 10SM CLR 00/M05 A3035 RMK AO2 =
2014-12-21 18:50 METAR KFDK 212350Z 00000KT 10SM SKC M01/M04 A3036 =
2014-12-21 17:50 METAR KFDK 212250Z 00000KT 10SM SKC 01/M06 A3033 =
2014-12-21 16:50 METAR KFDK 212150Z 00000KT 10SM SKC 03/M06 A3033 =
2014-12-21 15:50 METAR KFDK 212050Z 00000KT 10SM SKC 05/M06 A3031 =
2014-12-21 14:50 METAR KFDK 211950Z 00000KT 10SM SKC 06/M07 A3031 =
2014-12-21 13:45 METAR KFDK 211845Z 20005KT 10SM SKC 06/M06 A3033 =
2014-12-21 12:52 METAR KFDK 211752Z 00000KT 10SM SCT070 3034 =
2014-12-21 11:48 METAR KFDK 211648Z VRB03KT 10SM OVC070 03/M06 A3037 =
2014-12-21 10:45 METAR KFDK 211545Z 00000KT 10SM OVC070 02/M06 A3039 =
2014-12-21 09:45 METAR KFDK 211445Z 00000KT 10SM OVC070 01/M06 A3039 =
2014-12-21 08:50 METAR KFDK 211350Z 00000KT 10SM OVC070 01/M06 A3038 =
2014-12-21 07:45 METAR KFDK 211245Z 00000KT 10SM OVC070 01/M05 A3037 =
2014-12-21 06:45 METAR KFDK 211145Z 00000KT 10SM OVC070 00/M05 A3036 =
2014-12-21 05:30 METAR KFDK 211030Z AUTO 00000KT 10SM OVC070 00/M04 A3034 RMK AO2 =
2014-12-21 05:15 METAR KFDK 211015Z AUTO 00000KT 10SM OVC070 00/M04 A3033 RMK AO2 =
2014-12-21 04:55 METAR KFDK 210955Z AUTO 00000KT 10SM SCT041 OVC070 00/M04 A3033 RMK AO2 =
2014-12-21 04:35 METAR KFDK 210935Z AUTO 01003KT 10SM SCT041 OVC070 00/M05 A3033 RMK AO2 =
2014-12-21 04:15 METAR KFDK 210915Z AUTO 01003KT 10SM OVC070 00/M05 A3033 RMK AO2 =
2014-12-21 03:35 METAR KFDK 210835Z AUTO 00000KT 10SM BKN043 OVC070 00/M04 A3034 RMK AO2 =
2014-12-21 03:15 METAR KFDK 210815Z AUTO 00000KT 10SM BKN041 OVC070 00/M04 A3034 RMK AO2 =
2014-12-21 02:55 METAR KFDK 210755Z AUTO 00000KT 10SM BKN041 OVC070 00/M04 A3033 RMK AO2 =
2014-12-21 02:35 METAR KFDK 210735Z AUTO 00000KT 10SM SCT041 OVC070 00/M04 A3033 RMK AO2 =
2014-12-21 02:15 METAR KFDK 210715Z AUTO 01003KT 10SM OVC070 00/M05 A3033 RMK AO2 =
2014-12-21 01:55 METAR KFDK 210655Z AUTO 00000KT 10SM OVC080 00/M04 A3033 =
2014-12-21 01:35 METAR KFDK 210635Z AUTO 36003KT 10SM OVC080 00/M04 A3033 =
2014-12-21 01:15 METAR KFDK 210615Z AUTO 00000KT 10SM OVC080 00/M04 A3032 =
2014-12-21 00:55 METAR KFDK 210555Z AUTO 00000KT 10SM OVC080 00/M04 A3032 =
2014-12-21 00:35 METAR KFDK 210535Z AUTO 00000KT 10SM OVC080 00/M03 A3032 RMK AO2 =
2014-12-21 00:15 METAR KFDK 210515Z AUTO 00000KT 10SM OVC080 00/M04 A3033 RMK AO2 =
2014-12-20 23:55 METAR KFDK 210455Z AUTO 00000KT 10SM BKN080 BKN110 00/M04 A3032 =
2014-12-20 23:35 METAR KFDK 210435Z AUTO 01003KT 10SM SCT090 SCT110 00/M05 A3033 RMK AO2 =
2014-12-20 23:15 METAR KFDK 210415Z AUTO 00000KT 10SM OVC090 00/M05 A3033 RMK AO2 =
2014-12-20 22:55 METAR KFDK 210355Z AUTO 00000KT 10SM BKN100 OVC120 00/M05 A3032 RMK AO2 =
2014-12-20 22:35 METAR KFDK 210335Z AUTO 00000KT 10SM OVC120 00/M05 A3032 RMK AO2 =
2014-12-20 22:15 METAR KFDK 210315Z AUTO 00000KT 10SM SCT090 OVC120 00/M05 A3032 RMK AO2 =
2014-12-20 21:55 METAR KFDK 210255Z AUTO 04003KT 10SM OVC090 00/M04 A3032 =
2014-12-20 21:35 METAR KFDK 210235Z AUTO 00000KT 10SM OVC090 00/M03 A3032 RMK AO2 =
2014-12-20 21:15 METAR KFDK 210215Z AUTO 00000KT 10SM OVC090 00/M04 A3032 RMK AO2 =
2014-12-20 20:55 METAR KFDK 210155Z AUTO 00000KT 10SM BKN090 OVC120 00/M04 A3032 =
2014-12-20 20:35 METAR KFDK 210135Z AUTO 00000KT 10SM SCT090 OVC120 00/M04 A3032 =

Support USWX by starting your Amazon purchase here.